createdAt,value
2019-03-08T00:00:58.240Z,25.17
2019-03-08T00:03:26.933Z,21.73
2019-03-08T00:05:55.416Z,19.20
2019-03-08T00:08:23.980Z,30.08
2019-03-08T00:10:52.669Z,21.00
2019-03-08T00:13:21.678Z,23.87
2019-03-08T00:15:50.183Z,22.70
2019-03-08T00:18:18.726Z,28.52
2019-03-08T00:20:47.363Z,21.27
2019-03-08T00:23:15.999Z,22.65
2019-03-08T00:25:44.614Z,21.07
2019-03-08T00:28:13.289Z,24.75
2019-03-08T00:30:42.130Z,22.10
2019-03-08T00:33:10.807Z,23.30
2019-03-08T00:35:39.370Z,23.77
2019-03-08T00:38:08.002Z,26.95
2019-03-08T00:40:36.677Z,24.32
2019-03-08T00:43:05.310Z,26.02
2019-03-08T00:45:33.953Z,22.25
2019-03-08T00:48:02.634Z,18.20
2019-03-08T00:50:31.133Z,17.23
2019-03-08T00:52:59.808Z,16.05
2019-03-08T00:55:28.476Z,18.23
2019-03-08T00:57:57.387Z,15.00
2019-03-08T01:00:25.962Z,22.30
2019-03-08T01:02:54.717Z,23.20
2019-03-08T01:05:23.419Z,21.45
2019-03-08T01:07:52.055Z,18.67
2019-03-08T01:10:26.898Z,16.93
2019-03-08T01:12:55.725Z,16.97
2019-03-08T01:15:24.357Z,18.48
2019-03-08T01:17:53.026Z,18.27
2019-03-08T01:20:21.656Z,17.82
2019-03-08T01:22:50.288Z,17.90
2019-03-08T01:25:21.386Z,19.52
2019-03-08T01:28:04.251Z,18.77
2019-03-08T01:30:34.066Z,17.75
2019-03-08T01:33:02.775Z,18.48
2019-03-08T01:35:31.346Z,18.82
2019-03-08T01:38:00.020Z,15.68
2019-03-08T01:40:29.477Z,21.42
2019-03-08T01:42:58.106Z,18.23
2019-03-08T01:45:26.824Z,21.60
2019-03-08T01:47:55.460Z,23.50
2019-03-08T01:50:24.476Z,26.70
2019-03-08T01:52:53.836Z,20.45
2019-03-08T01:55:22.401Z,22.32
2019-03-08T01:57:51.034Z,23.05
2019-03-08T02:00:21.208Z,19.12
2019-03-08T02:02:49.869Z,23.38
2019-03-08T02:05:18.952Z,23.10
2019-03-08T02:07:47.780Z,22.85
2019-03-08T02:10:17.110Z,20.55
2019-03-08T02:12:45.743Z,21.48
2019-03-08T02:15:18.732Z,25.02
2019-03-08T02:17:47.371Z,24.40
2019-03-08T02:20:18.367Z,21.00
2019-03-08T02:22:46.969Z,23.80
2019-03-08T02:25:15.804Z,23.77
2019-03-08T02:27:44.514Z,21.20
2019-03-08T02:30:15.089Z,23.10
2019-03-08T02:32:43.828Z,23.83
2019-03-08T02:35:12.976Z,22.25
2019-03-08T02:37:41.589Z,21.85
2019-03-08T02:40:33.629Z,25.35
2019-03-08T02:43:04.081Z,24.50
2019-03-08T02:45:32.814Z,27.17
2019-03-08T02:48:01.310Z,40.85
2019-03-08T02:50:29.984Z,43.87
2019-03-08T02:52:58.619Z,49.13
2019-03-08T02:55:27.276Z,53.40
2019-03-08T02:57:55.993Z,46.90
2019-03-08T03:00:26.682Z,46.90
2019-03-08T03:02:55.329Z,42.93
2019-03-08T03:05:23.995Z,46.40
2019-03-08T03:07:52.494Z,46.23
2019-03-08T03:10:21.409Z,43.87
2019-03-08T03:12:50.079Z,42.20
2019-03-08T03:15:18.645Z,43.23
2019-03-08T03:17:47.282Z,38.38
2019-03-08T03:20:16.753Z,36.63
2019-03-08T03:22:45.395Z,38.20
2019-03-08T03:25:15.509Z,35.40
2019-03-08T03:27:44.183Z,36.98
2019-03-08T03:30:20.689Z,38.88
2019-03-08T03:32:49.287Z,35.70
2019-03-08T03:35:18.023Z,43.08
2019-03-08T03:37:46.926Z,53.05
2019-03-08T03:40:17.589Z,48.42
2019-03-08T03:42:46.151Z,47.62
2019-03-08T03:45:22.193Z,47.50
2019-03-08T03:47:50.863Z,51.95
2019-03-08T03:50:19.636Z,47.10
2019-03-08T03:52:48.212Z,52.35
2019-03-08T03:55:17.884Z,44.33
2019-03-08T03:57:46.516Z,52.45
2019-03-08T04:00:23.145Z,47.40
2019-03-08T04:02:51.879Z,49.95
2019-03-08T04:05:20.516Z,46.48
2019-03-08T04:07:50.825Z,53.30
2019-03-08T04:10:19.858Z,50.63
2019-03-08T04:12:48.491Z,49.48
2019-03-08T04:15:22.396Z,50.60
2019-03-08T04:17:51.062Z,43.95
2019-03-08T04:20:20.605Z,52.00
2019-03-08T04:22:49.363Z,45.88
2019-03-08T04:25:25.321Z,43.85
2019-03-08T04:27:53.890Z,48.70
2019-03-08T04:30:22.843Z,49.98
2019-03-08T04:32:51.477Z,52.98
2019-03-08T04:35:19.971Z,50.55
2019-03-08T04:37:48.532Z,49.85
2019-03-08T04:40:17.167Z,57.53
2019-03-08T04:42:45.798Z,39.98
2019-03-08T04:45:17.524Z,41.73
2019-03-08T04:47:46.092Z,39.70
2019-03-08T04:50:15.725Z,51.58
2019-03-08T04:52:44.515Z,42.53
2019-03-08T04:55:21.166Z,34.73
2019-03-08T04:57:50.129Z,40.48
2019-03-08T05:00:19.478Z,53.92
2019-03-08T05:02:48.095Z,53.33
2019-03-08T05:05:16.773Z,37.60
2019-03-08T05:07:45.410Z,37.98
2019-03-08T05:10:16.052Z,35.95
2019-03-08T05:12:44.737Z,45.90
2019-03-08T05:15:13.982Z,41.70
2019-03-08T05:17:42.840Z,43.13
2019-03-08T05:20:11.705Z,42.08
2019-03-08T05:22:40.215Z,33.18
2019-03-08T05:25:11.419Z,47.53
2019-03-08T05:27:40.097Z,39.23
2019-03-08T05:30:16.304Z,46.70
2019-03-08T05:32:44.913Z,38.23
2019-03-08T05:35:14.655Z,59.60
2019-03-08T05:37:43.285Z,54.33
2019-03-08T05:40:14.329Z,34.40
2019-03-08T05:42:42.903Z,48.95
2019-03-08T05:45:15.409Z,55.12
2019-03-08T05:47:44.055Z,57.50
2019-03-08T05:50:13.187Z,67.90
2019-03-08T05:52:42.038Z,62.85
2019-03-08T05:55:11.659Z,55.17
2019-03-08T05:57:40.403Z,67.90
2019-03-08T06:00:15.965Z,61.83
2019-03-08T06:02:44.735Z,70.00
2019-03-08T06:05:13.317Z,55.30
2019-03-08T06:07:41.812Z,68.30
2019-03-08T06:10:34.415Z,50.80
2019-03-08T06:13:05.127Z,72.35
2019-03-08T06:15:33.867Z,60.35
2019-03-08T06:18:02.570Z,61.90
2019-03-08T06:20:31.181Z,62.80
2019-03-08T06:22:59.880Z,51.00
2019-03-08T06:25:28.519Z,56.20
2019-03-08T06:27:56.997Z,54.58
2019-03-08T06:30:25.788Z,48.05
2019-03-08T06:32:54.790Z,44.98
2019-03-08T06:35:23.380Z,49.15
2019-03-08T06:37:52.014Z,48.85
2019-03-08T06:40:20.709Z,46.83
2019-03-08T06:42:49.341Z,52.70
2019-03-08T06:45:18.699Z,58.28
2019-03-08T06:47:47.538Z,68.62
2019-03-08T06:50:16.776Z,51.33
2019-03-08T06:52:45.425Z,55.83
2019-03-08T06:55:15.314Z,63.38
2019-03-08T06:57:44.047Z,49.50
2019-03-08T07:00:20.039Z,54.60
2019-03-08T07:02:48.608Z,64.05
2019-03-08T07:05:17.250Z,51.00
2019-03-08T07:07:45.935Z,59.53
2019-03-08T07:10:14.573Z,61.58
2019-03-08T07:12:43.073Z,56.02
2019-03-08T07:15:11.750Z,50.20
2019-03-08T07:17:40.245Z,38.95
2019-03-08T07:20:13.428Z,45.05
2019-03-08T07:22:55.837Z,39.95
2019-03-08T07:25:41.352Z,55.48
2019-03-08T07:28:17.836Z,40.92
2019-03-08T07:30:58.110Z,42.85
2019-03-08T07:33:42.946Z,47.67
2019-03-08T07:36:13.093Z,54.42
2019-03-08T07:38:55.391Z,50.78
2019-03-08T07:41:25.680Z,50.75
2019-03-08T07:43:56.327Z,42.05
2019-03-08T07:46:26.573Z,41.85
2019-03-08T07:49:13.157Z,43.98
2019-03-08T07:51:43.620Z,48.52
2019-03-08T07:54:22.859Z,31.23
2019-03-08T07:57:02.081Z,35.43
2019-03-08T07:59:32.362Z,22.55
2019-03-08T08:02:18.660Z,30.95
2019-03-08T08:05:04.730Z,23.62
2019-03-08T08:07:37.931Z,25.82
2019-03-08T08:10:10.718Z,27.65
2019-03-08T08:12:57.117Z,28.32
2019-03-08T08:15:29.994Z,36.80
2019-03-08T08:18:03.378Z,20.10
2019-03-08T08:20:50.202Z,18.55
2019-03-08T08:23:20.383Z,24.63
2019-03-08T08:25:50.525Z,23.22
2019-03-08T08:28:35.840Z,28.00
2019-03-08T08:31:12.406Z,23.00
2019-03-08T08:33:45.029Z,31.82
2019-03-08T08:36:18.042Z,31.57
2019-03-08T08:38:48.326Z,22.20
2019-03-08T08:41:20.947Z,25.52
2019-03-08T08:43:51.224Z,36.13
2019-03-08T08:46:24.609Z,23.02
2019-03-08T08:48:54.841Z,28.17
2019-03-08T08:51:40.883Z,22.58
2019-03-08T08:54:23.382Z,28.75
2019-03-08T08:57:02.427Z,25.52
2019-03-08T08:59:35.357Z,24.47
2019-03-08T09:02:05.570Z,27.52
2019-03-08T09:04:35.841Z,22.73
2019-03-08T09:07:22.820Z,22.80
2019-03-08T09:09:53.018Z,22.90
2019-03-08T09:12:29.438Z,25.80
2019-03-08T09:14:59.713Z,24.07
2019-03-08T09:17:29.992Z,25.72
2019-03-08T09:20:00.250Z,35.65
2019-03-08T09:22:33.588Z,22.17
2019-03-08T09:25:06.485Z,24.47
2019-03-08T09:27:36.624Z,18.80
2019-03-08T09:30:22.266Z,20.48
2019-03-08T09:33:07.861Z,22.85
2019-03-08T09:35:44.294Z,33.08
2019-03-08T09:38:14.448Z,22.62
2019-03-08T09:40:57.299Z,27.50
2019-03-08T09:43:27.576Z,28.02
2019-03-08T09:46:06.627Z,27.13
2019-03-08T09:48:48.182Z,29.50
2019-03-08T09:51:12.074Z,36.35
2019-03-08T09:53:45.339Z,30.25
2019-03-08T09:56:15.468Z,24.25
2019-03-08T09:59:01.904Z,26.95
2019-03-08T10:01:41.235Z,23.90
2019-03-08T10:04:27.992Z,30.45
2019-03-08T10:07:16.348Z,29.45
2019-03-08T10:10:02.840Z,25.45
2019-03-08T10:12:39.329Z,24.72
2019-03-08T10:15:12.412Z,25.52
2019-03-08T10:17:54.527Z,23.35
2019-03-08T10:20:43.418Z,28.73
2019-03-08T10:23:19.972Z,32.60
2019-03-08T10:25:58.015Z,26.68
2019-03-08T10:28:34.063Z,26.45
2019-03-08T10:31:04.370Z,25.65
2019-03-08T10:33:46.233Z,23.95
2019-03-08T10:36:18.698Z,24.87
2019-03-08T10:39:05.002Z,26.45
2019-03-08T10:41:35.151Z,26.37
2019-03-08T10:44:11.378Z,31.15
2019-03-08T10:46:46.515Z,23.60
2019-03-08T10:49:19.678Z,30.62
2019-03-08T10:51:49.960Z,25.12
2019-03-08T10:54:20.098Z,22.77
2019-03-08T10:57:05.656Z,23.62
2019-03-08T10:59:38.869Z,25.17
2019-03-08T11:02:27.900Z,25.97
2019-03-08T11:05:01.424Z,26.70
2019-03-08T11:07:31.568Z,26.17
2019-03-08T11:10:01.887Z,21.73
2019-03-08T11:12:47.095Z,21.77
2019-03-08T11:15:33.802Z,32.65
2019-03-08T11:18:16.117Z,15.53
2019-03-08T11:20:49.293Z,19.87
2019-03-08T11:23:38.001Z,25.48
2019-03-08T11:26:23.499Z,24.25
2019-03-08T11:29:12.268Z,16.02
2019-03-08T11:31:45.633Z,24.47
2019-03-08T11:34:18.265Z,25.10
2019-03-08T11:36:48.544Z,53.15
2019-03-08T11:39:22.545Z,41.68
2019-03-08T11:42:11.019Z,17.92
2019-03-08T11:44:53.196Z,22.82
2019-03-08T11:47:26.276Z,15.70
2019-03-08T11:50:11.896Z,12.75
2019-03-08T11:52:48.054Z,13.85
2019-03-08T11:55:34.320Z,21.37
2019-03-08T11:58:07.669Z,25.68
2019-03-08T12:00:37.939Z,9.93
2019-03-08T12:03:20.486Z,2.35
2019-03-08T12:06:01.116Z,4.60
2019-03-08T12:08:31.449Z,4.70
2019-03-08T12:11:16.550Z,9.30
2019-03-08T12:13:46.935Z,6.03
2019-03-08T12:16:26.133Z,4.12
2019-03-08T12:18:56.353Z,10.58
2019-03-08T12:21:29.972Z,2.55
2019-03-08T12:24:09.493Z,5.08
2019-03-08T12:26:39.774Z,4.28
2019-03-08T12:29:12.379Z,5.33
2019-03-08T12:31:51.926Z,8.43
2019-03-08T12:34:31.180Z,2.42
2019-03-08T12:37:01.792Z,6.70
2019-03-08T12:39:32.064Z,8.28
2019-03-08T12:42:20.445Z,17.48
2019-03-08T12:44:50.727Z,12.82
2019-03-08T12:47:21.005Z,7.37
2019-03-08T12:49:56.972Z,10.10
2019-03-08T12:52:42.338Z,6.78
2019-03-08T12:55:21.928Z,13.30
2019-03-08T12:58:08.006Z,6.20
2019-03-08T13:00:41.285Z,6.50
2019-03-08T13:03:28.053Z,10.00
2019-03-08T13:06:01.338Z,19.05
2019-03-08T13:08:43.745Z,11.85
2019-03-08T13:11:12.412Z,9.83
2019-03-08T13:13:41.060Z,11.33
2019-03-08T13:16:09.899Z,15.75
2019-03-08T13:18:38.436Z,8.63
2019-03-08T13:21:08.052Z,6.22
2019-03-08T13:23:36.614Z,5.08
2019-03-08T13:26:05.207Z,7.80
2019-03-08T13:28:33.770Z,8.40
2019-03-08T13:31:02.611Z,13.50
2019-03-08T13:33:31.212Z,14.68
2019-03-08T13:35:59.843Z,16.12
2019-03-08T13:38:28.406Z,14.40
2019-03-08T13:40:57.207Z,6.53
2019-03-08T13:43:25.791Z,6.90
2019-03-08T13:45:54.702Z,6.33
2019-03-08T13:48:23.401Z,12.13
2019-03-08T13:50:51.969Z,10.90
2019-03-08T13:53:20.539Z,17.30
2019-03-08T13:55:49.222Z,10.85
2019-03-08T13:58:17.789Z,14.18
2019-03-08T14:00:46.527Z,8.25
2019-03-08T14:03:15.142Z,15.13
2019-03-08T14:05:43.777Z,7.35
2019-03-08T14:08:12.355Z,8.80
2019-03-08T14:10:41.027Z,16.02
2019-03-08T14:13:09.597Z,13.55
2019-03-08T14:15:38.338Z,8.38
2019-03-08T14:18:07.009Z,13.08
2019-03-08T14:20:35.644Z,4.83
2019-03-08T14:23:04.283Z,10.40
2019-03-08T14:25:32.826Z,6.22
2019-03-08T14:28:01.384Z,5.40
2019-03-08T14:30:37.899Z,3.58
2019-03-08T14:33:06.464Z,14.78
2019-03-08T14:35:34.960Z,14.98
2019-03-08T14:38:03.653Z,10.30
2019-03-08T14:40:33.933Z,11.68
2019-03-08T14:43:16.970Z,6.70
2019-03-08T14:45:48.090Z,12.53
2019-03-08T14:48:16.736Z,14.63
2019-03-08T14:50:45.333Z,19.48
2019-03-08T14:53:14.172Z,9.33
2019-03-08T14:55:42.810Z,12.40
2019-03-08T14:58:11.547Z,30.32
2019-03-08T15:00:40.212Z,8.28
2019-03-08T15:03:08.860Z,6.30
2019-03-08T15:05:37.603Z,23.67
2019-03-08T15:08:06.235Z,12.30
2019-03-08T15:10:39.515Z,8.03
2019-03-08T15:13:05.140Z,14.25
2019-03-08T15:15:33.792Z,14.40
2019-03-08T15:18:02.447Z,14.68
2019-03-08T15:20:31.332Z,12.40
2019-03-08T15:22:59.898Z,22.00
2019-03-08T15:25:31.274Z,12.37
2019-03-08T15:27:58.880Z,18.27
2019-03-08T15:30:27.527Z,28.95
2019-03-08T15:32:56.086Z,8.63
2019-03-08T15:35:24.909Z,8.70
2019-03-08T15:37:53.539Z,17.07
2019-03-08T15:40:23.846Z,5.75
2019-03-08T15:42:52.909Z,6.00
2019-03-08T15:45:21.548Z,10.13
2019-03-08T15:47:50.291Z,17.65
2019-03-08T15:50:20.200Z,7.20
2019-03-08T15:52:48.944Z,7.40
2019-03-08T15:55:23.594Z,11.12
2019-03-08T15:57:52.265Z,2.80
2019-03-08T16:00:21.702Z,5.10
2019-03-08T16:02:50.983Z,5.45
2019-03-08T16:05:23.750Z,7.12
2019-03-08T16:07:51.164Z,5.37
2019-03-08T16:10:21.836Z,9.60
2019-03-08T16:12:50.629Z,2.77
2019-03-08T16:15:19.374Z,7.40
2019-03-08T16:17:48.102Z,14.00
2019-03-08T16:20:19.686Z,3.27
2019-03-08T16:22:48.318Z,5.67
2019-03-08T16:25:17.773Z,3.70
2019-03-08T16:27:46.426Z,7.80
2019-03-08T16:30:22.324Z,7.60
2019-03-08T16:32:52.597Z,2.15
2019-03-08T16:35:20.894Z,5.90
2019-03-08T16:37:50.831Z,4.35
2019-03-08T16:40:26.568Z,4.45
2019-03-08T16:42:58.978Z,5.90
2019-03-08T16:45:46.695Z,9.50
2019-03-08T16:48:19.576Z,7.85
2019-03-08T16:50:49.535Z,2.50
2019-03-08T16:53:22.646Z,6.60
2019-03-08T16:56:00.356Z,8.55
2019-03-08T16:58:31.366Z,16.85
2019-03-08T17:01:07.803Z,12.58
2019-03-08T17:03:41.054Z,9.95
2019-03-08T17:06:26.157Z,13.05
2019-03-08T17:08:51.823Z,9.73
2019-03-08T17:11:21.975Z,3.60
2019-03-08T17:13:55.666Z,5.85
2019-03-08T17:16:25.977Z,5.58
2019-03-08T17:19:11.424Z,9.00
2019-03-08T17:21:36.892Z,14.35
2019-03-08T17:24:07.159Z,19.00
2019-03-08T17:26:40.227Z,16.20
2019-03-08T17:29:10.462Z,8.53
2019-03-08T17:31:57.150Z,9.48
2019-03-08T17:34:27.391Z,6.20
2019-03-08T17:37:13.780Z,8.80
2019-03-08T17:39:44.270Z,10.60
2019-03-08T17:42:29.950Z,9.43
2019-03-08T17:45:12.019Z,6.58
2019-03-08T17:47:44.833Z,15.20
2019-03-08T17:50:18.202Z,11.50
2019-03-08T17:53:06.952Z,13.20
2019-03-08T17:55:37.201Z,13.32
2019-03-08T17:58:23.281Z,13.58
2019-03-08T18:00:53.593Z,21.97
2019-03-08T18:03:23.878Z,14.70
2019-03-08T18:06:00.311Z,22.55
2019-03-08T18:08:39.338Z,19.65
2019-03-08T18:11:21.835Z,20.57
2019-03-08T18:13:52.420Z,20.52
2019-03-08T18:16:25.913Z,24.25
2019-03-08T18:19:02.180Z,26.05
2019-03-08T18:21:32.396Z,15.10
2019-03-08T18:24:02.519Z,20.27
2019-03-08T18:26:47.951Z,20.12
2019-03-08T18:29:18.229Z,18.50
2019-03-08T18:32:00.099Z,29.02
2019-03-08T18:34:45.433Z,25.70
2019-03-08T18:37:18.635Z,30.70
2019-03-08T18:39:48.961Z,19.92
2019-03-08T18:42:35.645Z,26.87
2019-03-08T18:45:11.370Z,27.67
2019-03-08T18:47:41.684Z,12.70
2019-03-08T18:50:34.244Z,22.55
2019-03-08T18:53:17.091Z,14.78
2019-03-08T18:55:59.313Z,10.43
2019-03-08T18:58:47.483Z,8.88
2019-03-08T19:01:33.461Z,10.70
2019-03-08T19:04:03.699Z,12.33
2019-03-08T19:06:34.065Z,14.90
2019-03-08T19:09:20.141Z,15.32
2019-03-08T19:12:07.183Z,8.50
2019-03-08T19:14:53.629Z,12.53
2019-03-08T19:17:39.183Z,8.13
2019-03-08T19:20:14.423Z,8.48
2019-03-08T19:23:00.970Z,20.60
2019-03-08T19:25:37.167Z,17.50
2019-03-08T19:28:07.445Z,13.40
2019-03-08T19:30:37.724Z,9.18
2019-03-08T19:33:17.088Z,11.10
2019-03-08T19:36:02.478Z,7.12
2019-03-08T19:38:32.709Z,9.05
2019-03-08T19:41:06.358Z,10.53
2019-03-08T19:43:42.608Z,9.30
2019-03-08T19:46:18.799Z,13.98
2019-03-08T19:49:03.815Z,9.58
2019-03-08T19:51:40.023Z,11.55
2019-03-08T19:54:19.494Z,14.80
2019-03-08T19:56:52.728Z,13.50
2019-03-08T19:59:38.263Z,16.65
2019-03-08T20:02:17.557Z,14.03
2019-03-08T20:05:03.551Z,19.95
2019-03-08T20:07:42.390Z,18.23
2019-03-08T20:10:29.165Z,21.62
2019-03-08T20:13:14.422Z,22.75
2019-03-08T20:15:59.753Z,22.77
2019-03-08T20:18:35.906Z,30.37
2019-03-08T20:21:12.154Z,22.17
2019-03-08T20:23:48.030Z,19.00
2019-03-08T20:26:24.439Z,25.52
2019-03-08T20:28:54.649Z,23.38
2019-03-08T20:31:27.920Z,21.20
2019-03-08T20:34:00.847Z,22.35
2019-03-08T20:36:31.402Z,23.65
2019-03-08T20:39:01.675Z,21.48
2019-03-08T20:41:31.993Z,28.95
2019-03-08T20:44:02.203Z,22.77
2019-03-08T20:46:38.168Z,19.42
2019-03-08T20:49:06.658Z,20.40
2019-03-08T20:51:35.283Z,20.85
2019-03-08T20:54:03.970Z,20.72
2019-03-08T20:56:32.534Z,11.08
2019-03-08T20:59:01.172Z,14.78
2019-03-08T21:01:29.849Z,14.63
2019-03-08T21:03:58.419Z,15.13
2019-03-08T21:06:26.916Z,22.93
2019-03-08T21:08:55.528Z,32.67
2019-03-08T21:11:24.695Z,24.92
2019-03-08T21:13:53.506Z,15.35
2019-03-08T21:16:22.050Z,23.92
2019-03-08T21:18:50.625Z,23.57
2019-03-08T21:21:19.260Z,21.05
2019-03-08T21:23:47.939Z,21.50
2019-03-08T21:26:16.506Z,18.30
2019-03-08T21:28:45.068Z,20.12
2019-03-08T21:31:13.741Z,21.23
2019-03-08T21:33:42.316Z,22.40
2019-03-08T21:36:10.812Z,16.55
2019-03-08T21:38:39.421Z,23.05
2019-03-08T21:41:08.234Z,32.63
2019-03-08T21:43:36.815Z,39.58
2019-03-08T21:46:05.500Z,35.95
2019-03-08T21:48:34.070Z,32.38
2019-03-08T21:51:02.725Z,35.63
2019-03-08T21:53:31.291Z,33.20
2019-03-08T21:56:07.262Z,45.03
2019-03-08T21:58:35.872Z,32.48
2019-03-08T22:01:04.513Z,37.88
2019-03-08T22:03:33.078Z,30.20
2019-03-08T22:06:01.759Z,67.40
2019-03-08T22:08:30.332Z,32.13
2019-03-08T22:11:06.442Z,31.95
2019-03-08T22:13:35.068Z,36.30
2019-03-08T22:16:03.708Z,36.00
2019-03-08T22:18:32.663Z,49.63
2019-03-08T22:21:01.276Z,49.40
2019-03-08T22:23:29.840Z,49.60
2019-03-08T22:25:58.413Z,46.23
2019-03-08T22:28:27.027Z,44.20
2019-03-08T22:30:55.664Z,45.08
2019-03-08T22:33:24.224Z,50.88
2019-03-08T22:35:52.770Z,44.05
2019-03-08T22:38:21.338Z,39.78
2019-03-08T22:40:50.002Z,53.87
2019-03-08T22:43:18.597Z,36.98
2019-03-08T22:45:47.375Z,34.00
2019-03-08T22:48:15.946Z,39.98
2019-03-08T22:50:44.620Z,46.63
2019-03-08T22:53:13.191Z,49.27
2019-03-08T22:55:41.699Z,38.53
2019-03-08T22:58:10.323Z,39.85
2019-03-08T23:00:55.304Z,42.60
2019-03-08T23:03:24.885Z,39.15
2019-03-08T23:05:53.527Z,38.28
2019-03-08T23:08:22.169Z,36.33
2019-03-08T23:10:50.777Z,42.00
2019-03-08T23:13:19.413Z,37.93
2019-03-08T23:15:48.051Z,33.88
2019-03-08T23:18:22.850Z,35.30
2019-03-08T23:20:51.420Z,35.68
2019-03-08T23:23:20.059Z,33.02
2019-03-08T23:25:48.748Z,31.30
2019-03-08T23:28:21.683Z,35.17
2019-03-08T23:31:08.393Z,26.33
2019-03-08T23:33:36.956Z,27.10
2019-03-08T23:36:05.634Z,28.05
2019-03-08T23:38:34.205Z,27.77
2019-03-08T23:41:02.699Z,44.80
2019-03-08T23:43:31.371Z,34.95
2019-03-08T23:46:00.008Z,34.30
2019-03-08T23:48:28.645Z,37.20
2019-03-08T23:50:57.189Z,32.25
2019-03-08T23:53:25.751Z,31.82
2019-03-08T23:55:54.386Z,33.25
2019-03-08T23:58:23.255Z,37.23
